createdAt,value
2022-10-24T00:01:23.951Z,1.65
2022-10-24T00:04:00.509Z,1.48
2022-10-24T00:06:27.995Z,1.70
2022-10-24T00:09:00.610Z,1.20
2022-10-24T00:11:28.767Z,1.85
2022-10-24T00:14:06.213Z,2.20
2022-10-24T00:16:34.858Z,0.70
2022-10-24T00:19:11.293Z,1.13
2022-10-24T00:21:38.915Z,1.30
2022-10-24T00:24:13.376Z,0.95
2022-10-24T00:26:40.912Z,0.85
2022-10-24T00:29:10.777Z,0.63
2022-10-24T00:31:38.503Z,1.05
2022-10-24T00:34:05.926Z,1.02
2022-10-24T00:36:38.571Z,1.00
2022-10-24T00:39:06.158Z,0.98
2022-10-24T00:41:42.917Z,1.17
2022-10-24T00:44:22.090Z,1.55
2022-10-24T00:47:17.087Z,0.85
2022-10-24T00:50:03.362Z,1.23
2022-10-24T00:52:43.582Z,0.60
2022-10-24T00:55:58.154Z,1.30
2022-10-24T00:58:01.872Z,0.55
2022-10-24T01:00:34.140Z,0.60
2022-10-24T01:03:02.140Z,1.15
2022-10-24T01:05:37.366Z,1.08
2022-10-24T01:08:17.090Z,0.65
2022-10-24T01:10:50.894Z,0.60
2022-10-24T01:13:53.863Z,0.98
2022-10-24T01:16:28.380Z,0.95
2022-10-24T01:18:55.752Z,1.35
2022-10-24T01:21:28.934Z,0.47
2022-10-24T01:24:06.678Z,1.20
2022-10-24T01:26:55.358Z,0.85
2022-10-24T01:29:46.168Z,0.80
2022-10-24T01:32:44.182Z,0.68
2022-10-24T01:35:22.876Z,0.97
2022-10-24T01:38:11.395Z,0.95
2022-10-24T01:40:54.058Z,1.15
2022-10-24T01:46:29.182Z,0.45
2022-10-24T01:49:02.510Z,0.25
2022-10-24T01:51:31.182Z,0.45
2022-10-24T01:53:59.854Z,1.45
2022-10-24T01:56:38.405Z,1.00
2022-10-24T01:59:11.381Z,0.60
2022-10-24T02:01:44.145Z,0.90
2022-10-24T02:04:14.277Z,0.50
2022-10-24T02:06:43.020Z,1.00
2022-10-24T02:09:19.349Z,0.77
2022-10-24T02:11:50.149Z,0.88
2022-10-24T02:14:24.919Z,1.33
2022-10-24T02:16:55.250Z,0.85
2022-10-24T02:19:29.087Z,0.95
2022-10-24T02:22:01.975Z,1.20
2022-10-24T02:24:34.375Z,0.90
2022-10-24T02:27:14.068Z,0.95
2022-10-24T02:29:52.268Z,0.90
2022-10-24T02:32:48.726Z,0.68
2022-10-24T02:35:20.149Z,0.98
2022-10-24T02:37:50.666Z,0.90
2022-10-24T02:40:23.645Z,1.58
2022-10-24T02:42:58.382Z,1.50
2022-10-24T02:45:26.596Z,1.02
2022-10-24T02:47:59.241Z,0.87
2022-10-24T02:50:29.441Z,0.65
2022-10-24T02:53:01.341Z,0.50
2022-10-24T02:55:34.681Z,1.05
2022-10-24T02:58:03.875Z,0.75
2022-10-24T03:00:35.804Z,1.35
2022-10-24T03:03:12.057Z,0.63
2022-10-24T03:05:39.538Z,1.38
2022-10-24T03:08:12.757Z,1.60
2022-10-24T03:10:40.220Z,1.05
2022-10-24T03:13:07.637Z,1.60
2022-10-24T03:15:35.093Z,1.02
2022-10-24T03:18:02.563Z,0.73
2022-10-24T03:20:31.738Z,0.80
2022-10-24T03:22:59.494Z,0.75
2022-10-24T03:25:30.039Z,0.85
2022-10-24T03:28:12.276Z,1.23
2022-10-24T03:30:47.228Z,0.70
2022-10-24T03:33:23.457Z,1.00
2022-10-24T03:35:54.172Z,1.38
2022-10-24T03:38:24.490Z,1.25
2022-10-24T03:40:52.515Z,1.13
2022-10-24T03:43:22.478Z,0.70
2022-10-24T03:45:52.437Z,1.02
2022-10-24T03:48:19.951Z,0.77
2022-10-24T03:50:49.977Z,0.98
2022-10-24T03:53:27.885Z,0.90
2022-10-24T03:56:01.721Z,0.60
2022-10-24T03:58:30.479Z,0.88
2022-10-24T04:01:00.281Z,1.08
2022-10-24T04:03:28.600Z,0.57
2022-10-24T04:05:59.200Z,1.15
2022-10-24T04:08:35.030Z,1.08
2022-10-24T04:11:02.539Z,1.00
2022-10-24T04:13:29.985Z,1.23
2022-10-24T04:15:57.483Z,1.33
2022-10-24T04:18:27.128Z,2.17
2022-10-24T04:21:03.878Z,1.13
2022-10-24T04:23:35.915Z,0.95
2022-10-24T04:26:03.368Z,0.63
2022-10-24T04:28:30.900Z,0.73
2022-10-24T04:30:58.483Z,1.40
2022-10-24T04:33:33.428Z,0.55
2022-10-24T04:36:06.303Z,1.05
2022-10-24T04:41:54.105Z,1.77
2022-10-24T04:44:21.709Z,0.65
2022-10-24T04:47:02.731Z,1.10
2022-10-24T04:49:34.205Z,1.60
2022-10-24T04:52:05.493Z,1.15
2022-10-24T04:54:41.617Z,0.80
2022-10-24T04:57:11.384Z,1.23
2022-10-24T04:59:49.616Z,1.13
2022-10-24T05:02:19.134Z,1.02
2022-10-24T05:04:52.073Z,1.38
2022-10-24T05:07:22.837Z,2.42
2022-10-24T05:09:56.520Z,1.45
2022-10-24T05:12:30.201Z,1.23
2022-10-24T05:14:59.687Z,1.77
2022-10-24T05:17:29.789Z,0.82
2022-10-24T05:20:01.185Z,1.15
2022-10-24T05:22:34.278Z,0.80
2022-10-24T05:25:08.591Z,1.45
2022-10-24T05:27:36.259Z,1.85
2022-10-24T05:30:04.424Z,0.63
2022-10-24T05:32:37.312Z,1.10
2022-10-24T05:35:07.185Z,1.40
2022-10-24T05:37:44.322Z,1.60
2022-10-24T05:40:18.158Z,1.23
2022-10-24T05:42:45.930Z,1.13
2022-10-24T05:45:21.999Z,2.20
2022-10-24T05:47:52.520Z,1.05
2022-10-24T05:50:20.188Z,2.17
2022-10-24T05:52:49.421Z,1.77
2022-10-24T05:55:22.169Z,2.22
2022-10-24T05:57:50.477Z,1.17
2022-10-24T06:00:18.388Z,1.40
2022-10-24T06:05:17.415Z,1.77
2022-10-24T06:07:47.936Z,1.60
2022-10-24T06:10:15.666Z,1.60
2022-10-24T06:12:45.723Z,1.00
2022-10-24T06:15:17.958Z,1.67
2022-10-24T06:17:45.556Z,0.90
2022-10-24T06:20:13.062Z,1.60
2022-10-24T06:22:48.869Z,1.65
2022-10-24T06:25:26.914Z,1.23
2022-10-24T06:28:03.930Z,1.37
2022-10-24T06:30:35.598Z,2.17
2022-10-24T06:33:05.924Z,1.40
2022-10-24T06:35:38.519Z,1.85
2022-10-24T06:38:08.550Z,1.20
2022-10-24T06:40:39.560Z,1.42
2022-10-24T06:43:08.913Z,1.58
2022-10-24T06:45:39.700Z,1.27
2022-10-24T06:48:09.290Z,2.42
2022-10-24T06:50:39.973Z,1.50
2022-10-24T06:53:08.031Z,2.35
2022-10-24T06:55:35.878Z,1.10
2022-10-24T06:58:05.522Z,0.95
2022-10-24T07:00:33.147Z,1.85
2022-10-24T07:03:00.623Z,1.58
2022-10-24T07:05:28.031Z,1.85
2022-10-24T07:08:05.269Z,1.77
2022-10-24T07:10:34.582Z,1.80
2022-10-24T07:13:01.939Z,1.98
2022-10-24T07:15:31.828Z,1.10
2022-10-24T07:18:02.142Z,1.05
2022-10-24T07:20:31.919Z,1.35
2022-10-24T07:23:02.560Z,1.88
2022-10-24T07:25:29.898Z,2.08
2022-10-24T07:27:58.933Z,1.33
2022-10-24T07:32:56.012Z,2.50
2022-10-24T07:35:29.836Z,1.23
2022-10-24T07:38:01.850Z,2.40
2022-10-24T07:40:31.965Z,2.38
2022-10-24T07:43:01.913Z,2.85
2022-10-24T07:45:30.079Z,2.80
2022-10-24T07:47:58.458Z,2.50
2022-10-24T07:50:25.912Z,2.03
2022-10-24T07:52:53.387Z,1.85
2022-10-24T07:55:23.438Z,3.80
2022-10-24T07:57:54.572Z,3.33
2022-10-24T08:00:22.262Z,1.50
2022-10-24T08:05:19.408Z,1.88
2022-10-24T08:07:56.142Z,3.95
2022-10-24T08:10:41.244Z,3.45
2022-10-24T08:13:11.532Z,3.88
2022-10-24T08:15:42.283Z,2.90
2022-10-24T08:18:09.868Z,2.53
2022-10-24T08:20:37.304Z,2.80
2022-10-24T08:23:09.435Z,2.90
2022-10-24T08:25:40.577Z,2.92
2022-10-24T08:28:10.138Z,2.95
2022-10-24T08:30:39.506Z,5.30
2022-10-24T08:33:13.789Z,3.20
2022-10-24T08:35:44.856Z,3.13
2022-10-24T08:38:12.482Z,2.80
2022-10-24T08:40:42.330Z,1.77
2022-10-24T08:43:13.459Z,3.20
2022-10-24T08:45:49.166Z,5.97
2022-10-24T08:48:23.084Z,3.08
2022-10-24T08:50:54.667Z,3.20
2022-10-24T08:53:36.477Z,3.67
2022-10-24T08:56:08.573Z,5.18
2022-10-24T08:58:41.190Z,2.88
2022-10-24T09:01:20.910Z,3.53
2022-10-24T09:03:56.836Z,4.15
2022-10-24T09:06:35.125Z,3.22
2022-10-24T09:09:24.423Z,3.40
2022-10-24T09:12:02.267Z,2.78
2022-10-24T09:14:35.469Z,3.90
2022-10-24T09:17:23.509Z,2.90
2022-10-24T09:20:01.675Z,5.10
2022-10-24T09:22:31.018Z,3.90
2022-10-24T09:25:25.066Z,2.30
2022-10-24T09:27:56.749Z,3.53
2022-10-24T09:30:31.436Z,2.67
2022-10-24T09:33:24.588Z,3.67
2022-10-24T09:35:56.341Z,2.40
2022-10-24T09:38:32.184Z,2.92
2022-10-24T09:41:06.210Z,3.55
2022-10-24T09:43:36.599Z,2.10
2022-10-24T09:46:10.065Z,2.00
2022-10-24T09:48:37.431Z,2.13
2022-10-24T09:51:08.088Z,2.35
2022-10-24T09:53:41.112Z,1.70
2022-10-24T09:56:08.680Z,2.50
2022-10-24T09:58:36.182Z,2.42
2022-10-24T10:01:18.212Z,2.17
2022-10-24T10:04:04.888Z,1.48
2022-10-24T10:06:35.084Z,1.17
2022-10-24T10:09:02.474Z,1.50
2022-10-24T10:11:35.041Z,1.58
2022-10-24T10:14:08.678Z,1.75
2022-10-24T10:16:39.463Z,1.70
2022-10-24T10:19:20.247Z,1.60
2022-10-24T10:21:55.585Z,2.25
2022-10-24T10:24:27.984Z,1.92
2022-10-24T10:26:57.609Z,2.00
2022-10-24T10:29:25.522Z,2.88
2022-10-24T10:32:14.534Z,3.10
2022-10-24T10:34:55.085Z,1.52
2022-10-24T10:37:31.898Z,1.35
2022-10-24T10:40:16.881Z,1.02
2022-10-24T10:43:05.479Z,1.38
2022-10-24T10:45:35.052Z,1.10
2022-10-24T10:48:09.108Z,1.38
2022-10-24T10:50:39.771Z,1.52
2022-10-24T10:53:41.322Z,0.65
2022-10-24T10:56:23.974Z,1.05
2022-10-24T10:59:14.597Z,0.75
2022-10-24T11:02:06.650Z,0.57
2022-10-24T11:04:46.341Z,1.83
2022-10-24T11:07:19.447Z,0.90
2022-10-24T11:09:49.043Z,1.17
2022-10-24T11:12:25.778Z,1.10
2022-10-24T11:14:58.446Z,0.90
2022-10-24T11:17:50.244Z,0.45
2022-10-24T11:20:22.857Z,0.63
2022-10-24T11:22:56.645Z,0.43
2022-10-24T11:25:29.080Z,1.70
2022-10-24T11:28:01.683Z,0.95
2022-10-24T11:30:42.289Z,0.60
2022-10-24T11:33:15.292Z,0.82
2022-10-24T11:35:46.585Z,0.82
2022-10-24T11:38:18.726Z,0.25
2022-10-24T11:40:49.939Z,0.50
2022-10-24T11:43:27.462Z,1.08
2022-10-24T11:46:09.576Z,0.75
2022-10-24T11:48:40.629Z,1.02
2022-10-24T11:51:18.168Z,1.90
2022-10-24T11:53:48.936Z,1.65
2022-10-24T11:56:23.584Z,0.55
2022-10-24T11:59:16.670Z,1.13
2022-10-24T12:01:59.207Z,1.23
2022-10-24T12:04:44.667Z,0.52
2022-10-24T12:07:41.973Z,1.15
2022-10-24T12:10:12.122Z,1.13
2022-10-24T12:12:47.884Z,1.25
2022-10-24T12:15:32.228Z,0.93
2022-10-24T12:18:23.215Z,0.80
2022-10-24T12:20:52.837Z,0.73
2022-10-24T12:23:27.713Z,1.70
2022-10-24T12:26:18.701Z,0.95
2022-10-24T12:29:24.400Z,0.80
2022-10-24T12:31:52.603Z,1.13
2022-10-24T12:34:19.958Z,0.60
2022-10-24T12:37:06.153Z,1.30
2022-10-24T12:39:42.262Z,0.98
2022-10-24T12:42:14.430Z,0.93
2022-10-24T12:44:42.854Z,1.77
2022-10-24T12:47:30.676Z,1.02
2022-10-24T12:49:59.432Z,1.23
2022-10-24T12:55:04.794Z,2.00
2022-10-24T12:57:33.779Z,1.42
2022-10-24T13:00:02.113Z,1.27
2022-10-24T13:02:32.578Z,1.67
2022-10-24T13:05:18.662Z,1.38
2022-10-24T13:08:04.344Z,2.45
2022-10-24T13:10:50.379Z,2.25
2022-10-24T13:13:27.036Z,1.70
2022-10-24T13:16:25.841Z,1.27
2022-10-24T13:19:17.139Z,2.35
2022-10-24T13:21:55.067Z,0.90
2022-10-24T13:24:26.595Z,1.30
2022-10-24T13:26:55.869Z,2.42
2022-10-24T13:29:29.317Z,1.55
2022-10-24T13:32:20.067Z,1.13
2022-10-24T13:34:54.141Z,1.98
2022-10-24T13:37:44.755Z,1.85
2022-10-24T13:40:17.621Z,3.00
2022-10-24T13:42:53.811Z,1.85
2022-10-24T13:45:27.190Z,1.77
2022-10-24T13:47:57.157Z,1.27
2022-10-24T13:50:27.505Z,2.35
2022-10-24T13:52:59.562Z,1.50
2022-10-24T13:55:32.826Z,2.05
2022-10-24T13:58:11.269Z,1.45
2022-10-24T14:00:50.410Z,1.85
2022-10-24T14:03:21.864Z,1.50
2022-10-24T14:05:53.499Z,1.95
2022-10-24T14:08:31.773Z,1.45
2022-10-24T14:11:02.215Z,2.55
2022-10-24T14:13:31.911Z,1.63
2022-10-24T14:16:02.839Z,1.85
2022-10-24T14:18:32.683Z,1.55
2022-10-24T14:21:02.114Z,2.33
2022-10-24T14:23:37.259Z,1.75
2022-10-24T14:26:07.309Z,1.20
2022-10-24T14:28:36.128Z,1.50
2022-10-24T14:33:34.328Z,1.40
2022-10-24T14:36:05.006Z,1.85
2022-10-24T14:38:33.383Z,2.45
2022-10-24T14:41:10.442Z,1.45
2022-10-24T14:43:42.677Z,2.75
2022-10-24T14:46:10.432Z,0.93
2022-10-24T14:48:40.488Z,1.25
2022-10-24T14:51:19.168Z,1.15
2022-10-24T14:56:28.918Z,2.95
2022-10-24T14:58:57.753Z,2.28
2022-10-24T15:04:01.956Z,2.05
2022-10-24T15:06:36.707Z,2.53
2022-10-24T15:09:12.908Z,1.90
2022-10-24T15:11:41.942Z,1.95
2022-10-24T15:14:39.197Z,1.98
2022-10-24T15:17:25.856Z,2.47
2022-10-24T15:19:57.053Z,2.00
2022-10-24T15:22:35.899Z,2.75
2022-10-24T15:25:07.938Z,1.27
2022-10-24T15:27:42.568Z,1.10
2022-10-24T15:30:22.090Z,1.70
2022-10-24T15:32:50.516Z,1.67
2022-10-24T15:35:18.526Z,1.48
2022-10-24T15:38:00.276Z,1.03
2022-10-24T15:40:30.400Z,2.05
2022-10-24T15:42:57.770Z,1.60
2022-10-24T15:45:31.225Z,1.00
2022-10-24T15:48:00.900Z,1.25
2022-10-24T15:50:34.749Z,1.98
2022-10-24T15:53:02.968Z,0.82
2022-10-24T15:55:31.131Z,1.85
2022-10-24T15:58:00.053Z,2.00
2022-10-24T16:03:00.882Z,1.13
2022-10-24T16:05:35.647Z,1.42
2022-10-24T16:08:03.057Z,2.15
2022-10-24T16:10:35.205Z,0.98
2022-10-24T16:13:04.859Z,1.95
2022-10-24T16:15:36.780Z,1.65
2022-10-24T16:18:06.588Z,1.60
2022-10-24T16:20:36.313Z,1.55
2022-10-24T16:23:07.453Z,1.88
2022-10-24T16:25:38.585Z,1.55
2022-10-24T16:28:07.986Z,1.70
2022-10-24T16:30:36.822Z,1.98
2022-10-24T16:33:04.223Z,2.90
2022-10-24T16:35:34.174Z,2.58
2022-10-24T16:38:02.324Z,1.95
2022-10-24T16:40:34.457Z,2.17
2022-10-24T16:43:02.560Z,1.38
2022-10-24T16:45:30.046Z,2.67
2022-10-24T16:47:57.399Z,2.08
2022-10-24T16:50:27.323Z,2.17
2022-10-24T16:52:55.923Z,1.48
2022-10-24T16:55:23.912Z,2.03
2022-10-24T16:57:51.456Z,2.33
2022-10-24T17:00:20.787Z,1.83
2022-10-24T17:02:51.911Z,2.20
2022-10-24T17:05:22.410Z,3.10
2022-10-24T17:07:54.492Z,0.93
2022-10-24T17:10:24.678Z,1.98
2022-10-24T17:12:53.113Z,2.00
2022-10-24T17:15:22.401Z,1.77
2022-10-24T17:17:50.672Z,1.83
2022-10-24T17:20:18.326Z,4.23
2022-10-24T17:22:47.376Z,2.97
2022-10-24T17:25:19.072Z,2.17
2022-10-24T17:27:47.192Z,2.35
2022-10-24T17:30:22.363Z,2.72
2022-10-24T17:32:50.761Z,3.15
2022-10-24T17:35:20.959Z,2.80
2022-10-24T17:37:57.008Z,2.42
2022-10-24T17:40:29.314Z,2.60
2022-10-24T17:42:59.432Z,2.60
2022-10-24T17:45:27.675Z,1.70
2022-10-24T17:47:56.258Z,2.20
2022-10-24T17:50:24.162Z,2.33
2022-10-24T17:52:55.828Z,2.30
2022-10-24T17:58:13.126Z,3.90
2022-10-24T18:00:41.153Z,4.18
2022-10-24T18:03:11.615Z,3.03
2022-10-24T18:05:39.428Z,2.70
2022-10-24T18:08:09.172Z,3.95
2022-10-24T18:10:40.668Z,4.95
2022-10-24T18:13:09.027Z,3.15
2022-10-24T18:15:37.430Z,3.17
2022-10-24T18:18:08.603Z,5.78
2022-10-24T18:20:36.571Z,3.00
2022-10-24T18:23:06.646Z,2.03
2022-10-24T18:25:34.722Z,3.10
2022-10-24T18:28:02.642Z,3.25
2022-10-24T18:30:35.137Z,3.20
2022-10-24T18:33:02.976Z,3.13
2022-10-24T18:35:34.269Z,3.00
2022-10-24T18:38:04.757Z,2.38
2022-10-24T18:40:34.024Z,3.45
2022-10-24T18:43:05.563Z,3.50
2022-10-24T18:45:33.809Z,2.47
2022-10-24T18:48:04.936Z,2.90
2022-10-24T18:50:36.492Z,2.42
2022-10-24T18:53:10.496Z,3.00
2022-10-24T18:55:38.744Z,2.33
2022-10-24T18:58:11.782Z,5.00
2022-10-24T19:00:41.125Z,3.92
2022-10-24T19:03:17.884Z,3.97
2022-10-24T19:05:54.708Z,3.95
2022-10-24T19:08:24.067Z,4.07
2022-10-24T19:13:28.184Z,3.15
2022-10-24T19:16:00.691Z,4.93
2022-10-24T19:18:30.799Z,4.22
2022-10-24T19:21:09.525Z,4.32
2022-10-24T19:26:15.051Z,3.10
2022-10-24T19:28:45.820Z,3.55
2022-10-24T19:31:15.054Z,3.53
2022-10-24T19:33:43.469Z,2.33
2022-10-24T19:36:14.485Z,3.65
2022-10-24T19:38:45.916Z,3.38
2022-10-24T19:41:13.763Z,3.25
2022-10-24T19:43:41.670Z,3.67
2022-10-24T19:46:24.921Z,2.03
2022-10-24T19:48:57.843Z,2.00
2022-10-24T19:51:30.228Z,1.65
2022-10-24T19:54:00.082Z,2.03
2022-10-24T19:56:29.635Z,0.98
2022-10-24T19:59:00.565Z,1.20
2022-10-24T20:01:29.888Z,1.75
2022-10-24T20:04:00.845Z,1.88
2022-10-24T20:06:36.818Z,1.35
2022-10-24T20:09:11.743Z,1.27
2022-10-24T20:11:56.963Z,1.63
2022-10-24T20:14:27.627Z,0.47
2022-10-24T20:17:02.277Z,1.38
2022-10-24T20:19:43.049Z,1.73
2022-10-24T20:22:15.150Z,5.25
2022-10-24T20:24:46.062Z,5.50
2022-10-24T20:27:16.642Z,3.63
2022-10-24T20:29:50.562Z,3.20
2022-10-24T20:32:18.407Z,1.48
2022-10-24T20:34:45.822Z,2.00
2022-10-24T20:37:13.195Z,2.28
2022-10-24T20:39:41.775Z,4.80
2022-10-24T20:42:12.003Z,3.38
2022-10-24T20:44:42.162Z,2.63
2022-10-24T20:47:12.938Z,3.75
2022-10-24T20:49:43.052Z,2.60
2022-10-24T20:54:42.711Z,2.72
2022-10-24T20:57:10.167Z,2.90
2022-10-24T20:59:37.529Z,2.78
2022-10-24T21:02:05.027Z,2.85
2022-10-24T21:04:35.107Z,2.72
2022-10-24T21:07:03.286Z,2.67
2022-10-24T21:09:30.987Z,2.58
2022-10-24T21:11:58.736Z,1.77
2022-10-24T21:14:30.987Z,2.53
2022-10-24T21:17:00.750Z,2.67
2022-10-24T21:19:30.614Z,2.20
2022-10-24T21:21:57.949Z,1.98
2022-10-24T21:24:25.247Z,2.25
2022-10-24T21:26:53.894Z,2.03
2022-10-24T21:29:32.916Z,3.00
2022-10-24T21:32:01.149Z,1.00
2022-10-24T21:34:34.219Z,2.33
2022-10-24T21:37:02.314Z,1.98
2022-10-24T21:39:33.021Z,1.75
2022-10-24T21:42:02.831Z,2.75
2022-10-24T21:44:30.270Z,1.85
2022-10-24T21:47:00.088Z,1.77
2022-10-24T21:49:29.785Z,1.00
2022-10-24T21:51:59.736Z,1.67
2022-10-24T21:54:28.759Z,1.92
2022-10-24T21:56:58.487Z,2.08
2022-10-24T21:59:25.866Z,2.35
2022-10-24T22:01:54.448Z,1.25
2022-10-24T22:04:22.132Z,1.08
2022-10-24T22:06:53.260Z,1.92
2022-10-24T22:09:23.980Z,1.95
2022-10-24T22:11:53.917Z,1.35
2022-10-24T22:14:23.516Z,1.23
2022-10-24T22:16:50.923Z,1.17
2022-10-24T22:19:22.634Z,0.70
2022-10-24T22:21:53.915Z,0.68
2022-10-24T22:24:22.931Z,1.05
2022-10-24T22:26:51.891Z,1.40
2022-10-24T22:29:22.273Z,0.73
2022-10-24T22:31:50.175Z,0.50
2022-10-24T22:34:22.119Z,1.08
2022-10-24T22:37:09.769Z,0.75
2022-10-24T22:39:39.612Z,0.60
2022-10-24T22:42:08.012Z,0.30
2022-10-24T22:44:35.601Z,1.20
2022-10-24T22:47:15.277Z,1.42
2022-10-24T22:50:03.933Z,1.35
2022-10-24T22:52:37.159Z,1.27
2022-10-24T22:55:09.270Z,0.93
2022-10-24T22:57:47.601Z,0.60
2022-10-24T23:00:15.299Z,1.23
2022-10-24T23:02:46.361Z,1.27
2022-10-24T23:05:32.802Z,0.70
2022-10-24T23:08:10.394Z,1.13
2022-10-24T23:10:40.804Z,1.00
2022-10-24T23:13:12.170Z,1.52
2022-10-24T23:15:42.171Z,1.65
2022-10-24T23:18:10.956Z,1.10
2022-10-24T23:20:44.469Z,1.45
2022-10-24T23:23:17.467Z,1.48
2022-10-24T23:26:07.241Z,1.25
2022-10-24T23:28:57.443Z,2.78
2022-10-24T23:31:24.989Z,1.67
2022-10-24T23:33:52.471Z,1.77
2022-10-24T23:36:26.429Z,1.92
2022-10-24T23:38:55.723Z,0.95
2022-10-24T23:41:23.241Z,1.85
2022-10-24T23:43:50.659Z,1.15
2022-10-24T23:46:28.401Z,2.17
2022-10-24T23:49:27.426Z,1.58
2022-10-24T23:52:09.649Z,1.27
2022-10-24T23:54:40.630Z,1.30
2022-10-24T23:57:15.412Z,1.98
2022-10-24T23:59:43.220Z,1.65
